Time,TemperatureF,DewpointF,PressureIn,WindDirection,WindDirectionDegrees,WindSpeedMPH,WindSpeedGustMPH,Humidity,HourlyPrecipIn,Conditions,Clouds,dailyrainin,SolarRadiationWatts/m^2,SoftwareType,DateUTC
2013-06-30 00:11:00,74.9,53.0,29.86,SW,234,0.0,1.0,47,0.00,,,0.00,0,weatherlink.com 1.10,2013-06-30 07:11:00,
2013-06-30 00:27:00,74.4,54.0,29.85,SW,234,0.0,0.0,49,0.00,,,0.00,0,weatherlink.com 1.10,2013-06-30 07:27:00,
2013-06-30 00:42:00,73.7,54.0,29.85,SW,234,0.0,0.0,50,0.00,,,0.00,0,weatherlink.com 1.10,2013-06-30 07:42:00,
2013-06-30 00:57:00,73.0,54.0,29.85,SW,234,0.0,0.0,51,0.00,,,0.00,0,weatherlink.com 1.10,2013-06-30 07:57:00,
2013-06-30 01:12:00,72.4,54.0,29.85,SW,234,0.0,0.0,52,0.00,,,0.00,0,weatherlink.com 1.10,2013-06-30 08:12:00,
2013-06-30 01:27:00,71.9,54.0,29.85,SW,234,0.0,0.0,53,0.00,,,0.00,0,weatherlink.com 1.10,2013-06-30 08:27:00,
2013-06-30 01:42:00,71.4,53.0,29.84,SW,234,0.0,1.0,53,0.00,,,0.00,0,weatherlink.com 1.10,2013-06-30 08:42:00,
2013-06-30 01:57:00,71.1,54.0,29.84,SW,234,0.0,0.0,55,0.00,,,0.00,0,weatherlink.com 1.10,2013-06-30 08:57:00,
2013-06-30 02:12:00,70.8,54.0,29.84,SW,234,0.0,0.0,55,0.00,,,0.00,0,weatherlink.com 1.10,2013-06-30 09:12:00,
2013-06-30 02:27:00,70.3,54.0,29.84,SW,234,0.0,0.0,56,0.00,,,0.00,0,weatherlink.com 1.10,2013-06-30 09:27:00,
2013-06-30 02:42:00,69.9,54.0,29.84,SW,234,0.0,0.0,58,0.00,,,0.00,0,weatherlink.com 1.10,2013-06-30 09:42:00,
2013-06-30 02:57:00,69.7,54.0,29.84,SW,234,0.0,1.0,58,0.00,,,0.00,0,weatherlink.com 1.10,2013-06-30 09:57:00,
2013-06-30 03:12:00,69.4,53.0,29.84,SW,234,0.0,0.0,57,0.00,,,0.00,0,weatherlink.com 1.10,2013-06-30 10:12:00,
2013-06-30 03:27:00,69.5,54.0,29.84,SW,234,0.0,1.0,58,0.00,,,0.00,0,weatherlink.com 1.10,2013-06-30 10:27:00,
2013-06-30 03:42:00,69.0,54.0,29.84,SW,234,0.0,1.0,59,0.00,,,0.00,0,weatherlink.com 1.10,2013-06-30 10:42:00,
2013-06-30 03:57:00,68.8,55.0,29.83,NW,304,0.0,2.0,61,0.00,,,0.00,0,weatherlink.com 1.10,2013-06-30 10:57:00,
2013-06-30 04:12:00,68.6,55.0,29.83,NW,304,0.0,1.0,63,0.00,,,0.00,0,weatherlink.com 1.10,2013-06-30 11:12:00,
2013-06-30 04:27:00,68.4,56.0,29.83,WNW,303,0.0,3.0,64,0.00,,,0.00,0,weatherlink.com 1.10,2013-06-30 11:27:00,
2013-06-30 04:42:00,67.9,56.0,29.83,WNW,303,0.0,1.0,66,0.00,,,0.00,0,weatherlink.com 1.10,2013-06-30 11:42:00,
2013-06-30 04:57:00,67.3,56.0,29.83,NW,304,0.0,0.0,67,0.00,,,0.00,0,weatherlink.com 1.10,2013-06-30 11:57:00,
2013-06-30 05:12:00,66.8,55.0,29.84,NW,304,0.0,0.0,67,0.00,,,0.00,0,weatherlink.com 1.10,2013-06-30 12:12:00,
2013-06-30 05:27:00,66.4,55.0,29.84,NW,304,0.0,0.0,68,0.00,,,0.00,0,weatherlink.com 1.10,2013-06-30 12:27:00,
2013-06-30 05:42:00,66.0,56.0,29.84,NW,304,0.0,1.0,69,0.00,,,0.00,0,weatherlink.com 1.10,2013-06-30 12:42:00,
2013-06-30 05:57:00,65.8,55.0,29.85,NW,304,0.0,0.0,69,0.00,,,0.00,5,weatherlink.com 1.10,2013-06-30 12:57:00,
2013-06-30 06:12:00,65.6,56.0,29.85,NW,304,0.0,0.0,70,0.00,,,0.00,11,weatherlink.com 1.10,2013-06-30 13:12:00,
2013-06-30 06:27:00,65.9,56.0,29.84,NW,304,0.0,0.0,70,0.00,,,0.00,16,weatherlink.com 1.10,2013-06-30 13:27:00,
2013-06-30 06:42:00,66.1,55.0,29.85,NW,304,0.0,0.0,68,0.00,,,0.00,19,weatherlink.com 1.10,2013-06-30 13:42:00,
2013-06-30 06:57:00,67.2,56.0,29.85,NW,304,0.0,2.0,67,0.00,,,0.00,23,weatherlink.com 1.10,2013-06-30 13:57:00,
2013-06-30 07:12:00,68.4,56.0,29.86,WNW,302,1.0,3.0,64,0.00,,,0.00,25,weatherlink.com 1.10,2013-06-30 14:12:00,
2013-06-30 07:27:00,69.3,56.0,29.85,WNW,302,1.0,2.0,63,0.00,,,0.00,97,weatherlink.com 1.10,2013-06-30 14:27:00,
2013-06-30 07:42:00,70.3,56.0,29.86,WNW,302,0.0,3.0,61,0.00,,,0.00,32,weatherlink.com 1.10,2013-06-30 14:42:00,
2013-06-30 07:57:00,71.0,56.0,29.86,WNW,302,0.0,2.0,59,0.00,,,0.00,32,weatherlink.com 1.10,2013-06-30 14:57:00,
2013-06-30 08:12:00,72.0,57.0,29.86,WNW,299,0.0,3.0,59,0.00,,,0.00,44,weatherlink.com 1.10,2013-06-30 15:12:00,
2013-06-30 08:27:00,73.1,57.0,29.86,WNW,299,0.0,3.0,57,0.00,,,0.00,65,weatherlink.com 1.10,2013-06-30 15:27:00,
2013-06-30 08:42:00,74.4,58.0,29.86,West,281,0.0,4.0,56,0.00,,,0.00,109,weatherlink.com 1.10,2013-06-30 15:42:00,
2013-06-30 08:57:00,75.8,58.0,29.86,SSE,160,1.0,3.0,54,0.00,,,0.00,63,weatherlink.com 1.10,2013-06-30 15:57:00,
2013-06-30 09:13:00,77.4,58.0,29.86,WNW,294,3.0,3.0,52,0.00,,,0.00,84,weatherlink.com 1.10,2013-06-30 16:13:00,
2013-06-30 09:28:00,79.0,58.0,29.86,West,270,3.0,5.0,48,0.00,,,0.00,596,weatherlink.com 1.10,2013-06-30 16:28:00,
2013-06-30 09:43:00,80.5,58.0,29.85,West,269,2.0,5.0,46,0.00,,,0.00,643,weatherlink.com 1.10,2013-06-30 16:43:00,
2013-06-30 09:58:00,82.2,57.0,29.85,West,267,0.0,4.0,43,0.00,,,0.00,686,weatherlink.com 1.10,2013-06-30 16:58:00,
2013-06-30 10:13:00,83.9,57.0,29.84,WSW,249,2.0,5.0,40,0.00,,,0.00,717,weatherlink.com 1.10,2013-06-30 17:13:00,
2013-06-30 10:28:00,85.9,56.0,29.84,WSW,241,2.0,6.0,36,0.00,,,0.00,754,weatherlink.com 1.10,2013-06-30 17:28:00,
2013-06-30 10:43:00,86.2,55.0,29.84,West,267,4.0,7.0,34,0.00,,,0.00,789,weatherlink.com 1.10,2013-06-30 17:43:00,
2013-06-30 10:58:00,87.2,56.0,29.84,West,281,1.0,7.0,35,0.00,,,0.00,816,weatherlink.com 1.10,2013-06-30 17:58:00,
2013-06-30 11:13:00,88.5,58.0,29.84,SW,234,1.0,7.0,35,0.00,,,0.00,838,weatherlink.com 1.10,2013-06-30 18:13:00,
2013-06-30 11:28:00,89.4,58.0,29.84,WSW,244,2.0,7.0,35,0.00,,,0.00,875,weatherlink.com 1.10,2013-06-30 18:28:00,
2013-06-30 11:43:00,90.3,58.0,29.83,West,281,2.0,6.0,33,0.00,,,0.00,904,weatherlink.com 1.10,2013-06-30 18:43:00,
2013-06-30 11:58:00,91.0,58.0,29.83,WSW,257,2.0,7.0,33,0.00,,,0.00,918,weatherlink.com 1.10,2013-06-30 18:58:00,
2013-06-30 12:13:00,91.7,58.0,29.83,WSW,249,3.0,8.0,32,0.00,,,0.00,926,weatherlink.com 1.10,2013-06-30 19:13:00,
2013-06-30 12:28:00,93.1,58.0,29.82,WNW,292,2.0,6.0,31,0.00,,,0.00,937,weatherlink.com 1.10,2013-06-30 19:28:00,
2013-06-30 12:43:00,94.1,59.0,29.82,WSW,244,3.0,6.0,31,0.00,,,0.00,942,weatherlink.com 1.10,2013-06-30 19:43:00,
2013-06-30 12:58:00,94.4,58.0,29.82,WSW,245,2.0,8.0,29,0.00,,,0.00,940,weatherlink.com 1.10,2013-06-30 19:58:00,
2013-06-30 13:13:00,95.3,58.0,29.82,SE,142,2.0,9.0,29,0.00,,,0.00,942,weatherlink.com 1.10,2013-06-30 20:13:00,
2013-06-30 13:29:00,95.7,58.0,29.81,SSW,205,3.0,7.0,28,0.00,,,0.00,933,weatherlink.com 1.10,2013-06-30 20:29:00,
2013-06-30 13:44:00,96.4,59.0,29.81,West,271,5.0,7.0,29,0.00,,,0.00,930,weatherlink.com 1.10,2013-06-30 20:44:00,
2013-06-30 13:59:00,98.1,58.0,29.81,West,259,3.0,7.0,26,0.00,,,0.00,916,weatherlink.com 1.10,2013-06-30 20:59:00,
2013-06-30 14:14:00,98.4,58.0,29.81,SSE,158,2.0,6.0,26,0.00,,,0.00,902,weatherlink.com 1.10,2013-06-30 21:14:00,
2013-06-30 14:29:00,98.8,57.0,29.80,SSE,148,2.0,9.0,25,0.00,,,0.00,886,weatherlink.com 1.10,2013-06-30 21:29:00,
2013-06-30 14:44:00,99.6,57.0,29.80,South,184,2.0,9.0,24,0.00,,,0.00,854,weatherlink.com 1.10,2013-06-30 21:44:00,
2013-06-30 14:59:00,100.0,57.0,29.80,SSW,195,2.0,10.0,24,0.00,,,0.00,831,weatherlink.com 1.10,2013-06-30 21:59:00,
2013-06-30 15:14:00,100.5,56.0,29.80,SW,232,2.0,7.0,23,0.00,,,0.00,807,weatherlink.com 1.10,2013-06-30 22:14:00,
2013-06-30 15:29:00,99.6,57.0,29.80,WSW,250,3.0,8.0,24,0.00,,,0.00,775,weatherlink.com 1.10,2013-06-30 22:29:00,
2013-06-30 15:44:00,98.9,56.0,29.80,WSW,252,0.0,8.0,24,0.00,,,0.00,735,weatherlink.com 1.10,2013-06-30 22:44:00,
2013-06-30 15:59:00,100.1,56.0,29.79,SW,229,3.0,6.0,23,0.00,,,0.00,700,weatherlink.com 1.10,2013-06-30 22:59:00,
2013-06-30 16:15:00,100.1,55.0,29.79,SSW,211,2.0,5.0,22,0.00,,,0.00,670,weatherlink.com 1.10,2013-06-30 23:15:00,
2013-06-30 16:29:00,100.0,56.0,29.78,WSW,248,7.0,7.0,23,0.00,,,0.00,629,weatherlink.com 1.10,2013-06-30 23:29:00,
2013-06-30 16:44:00,99.6,55.0,29.78,SW,232,4.0,9.0,22,0.00,,,0.00,592,weatherlink.com 1.10,2013-06-30 23:44:00,
2013-06-30 16:59:00,98.6,52.0,29.78,West,268,7.0,11.0,21,0.00,,,0.00,550,weatherlink.com 1.10,2013-06-30 23:59:00,
2013-06-30 17:14:00,98.4,53.0,29.78,West,269,4.0,10.0,22,0.00,,,0.00,503,weatherlink.com 1.10,2013-07-01 00:14:00,
2013-06-30 17:29:00,97.8,55.0,29.78,West,277,1.0,7.0,24,0.00,,,0.00,455,weatherlink.com 1.10,2013-07-01 00:29:00,
2013-06-30 17:44:00,96.9,55.0,29.78,SSE,163,4.0,6.0,24,0.00,,,0.00,406,weatherlink.com 1.10,2013-07-01 00:44:00,
2013-06-30 17:59:00,96.9,55.0,29.78,WSW,243,1.0,6.0,24,0.00,,,0.00,357,weatherlink.com 1.10,2013-07-01 00:59:00,
2013-06-30 18:14:00,95.0,56.0,29.77,SE,128,2.0,8.0,27,0.00,,,0.00,313,weatherlink.com 1.10,2013-07-01 01:14:00,
2013-06-30 18:29:00,92.8,56.0,29.77,ESE,116,4.0,7.0,29,0.00,,,0.00,265,weatherlink.com 1.10,2013-07-01 01:29:00,
2013-06-30 18:44:00,91.6,57.0,29.77,ESE,121,2.0,8.0,31,0.00,,,0.00,220,weatherlink.com 1.10,2013-07-01 01:44:00,
2013-06-30 18:59:00,89.4,56.0,29.78,SSE,154,0.0,9.0,32,0.00,,,0.00,176,weatherlink.com 1.10,2013-07-01 01:59:00,
2013-06-30 19:14:00,88.4,56.0,29.78,SE,129,0.0,7.0,33,0.00,,,0.00,137,weatherlink.com 1.10,2013-07-01 02:14:00,
2013-06-30 19:29:00,87.3,55.0,29.77,SE,132,0.0,5.0,33,0.00,,,0.00,98,weatherlink.com 1.10,2013-07-01 02:29:00,
2013-06-30 19:44:00,86.2,56.0,29.77,SE,144,2.0,7.0,35,0.00,,,0.00,69,weatherlink.com 1.10,2013-07-01 02:44:00,
2013-06-30 19:59:00,85.8,54.0,29.77,SSE,159,2.0,4.0,34,0.00,,,0.00,40,weatherlink.com 1.10,2013-07-01 02:59:00,
2013-06-30 20:14:00,85.8,54.0,29.78,South,188,1.0,2.0,34,0.00,,,0.00,23,weatherlink.com 1.10,2013-07-01 03:14:00,
2013-06-30 20:29:00,84.7,53.0,29.78,South,175,1.0,3.0,34,0.00,,,0.00,7,weatherlink.com 1.10,2013-07-01 03:29:00,
2013-06-30 20:44:00,83.0,53.0,29.78,SSE,147,1.0,3.0,36,0.00,,,0.00,0,weatherlink.com 1.10,2013-07-01 03:44:00,
2013-06-30 20:59:00,81.4,55.0,29.79,SE,146,0.0,3.0,40,0.00,,,0.00,0,weatherlink.com 1.10,2013-07-01 03:59:00,
2013-06-30 21:14:00,79.4,55.0,29.79,SE,146,0.0,1.0,43,0.00,,,0.00,0,weatherlink.com 1.10,2013-07-01 04:14:00,
2013-06-30 21:29:00,78.1,56.0,29.79,West,272,2.0,3.0,47,0.00,,,0.00,0,weatherlink.com 1.10,2013-07-01 04:29:00,
2013-06-30 21:44:00,76.7,56.0,29.80,West,273,0.0,1.0,49,0.00,,,0.00,0,weatherlink.com 1.10,2013-07-01 04:44:00,
2013-06-30 21:59:00,75.6,56.0,29.80,West,273,0.0,2.0,51,0.00,,,0.00,0,weatherlink.com 1.10,2013-07-01 04:59:00,
2013-06-30 22:29:00,74.5,56.0,29.81,West,273,0.0,1.0,52,0.00,,,0.00,0,weatherlink.com 1.10,2013-07-01 05:29:00,
2013-06-30 22:44:00,73.6,55.0,29.81,West,273,0.0,2.0,53,0.00,,,0.00,0,weatherlink.com 1.10,2013-07-01 05:44:00,
2013-06-30 22:59:00,72.5,55.0,29.81,West,271,4.0,4.0,55,0.00,,,0.00,0,weatherlink.com 1.10,2013-07-01 05:59:00,
2013-06-30 23:14:00,71.1,56.0,29.81,West,270,0.0,4.0,59,0.00,,,0.00,0,weatherlink.com 1.10,2013-07-01 06:14:00,
2013-06-30 23:29:00,70.1,55.0,29.82,WNW,290,3.0,6.0,60,0.00,,,0.00,0,weatherlink.com 1.10,2013-07-01 06:29:00,
2013-06-30 23:44:00,69.1,55.0,29.81,West,270,1.0,5.0,62,0.00,,,0.00,0,weatherlink.com 1.10,2013-07-01 06:44:00,
2013-06-30 23:59:00,68.4,55.0,29.82,West,269,2.0,5.0,63,0.00,,,0.00,0,weatherlink.com 1.10,2013-07-01 06:59:00,